sensor_id;sensor_type;location;lat;lon;timestamp;pressure;altitude;pressure_sealevel;temperature;humidity
64889;BME280;51386;53.082;8.816;2022-12-18T00:01:23;102867.41;;;-0.95;59.08
64889;BME280;51386;53.082;8.816;2022-12-18T00:03:52;102877.63;;;-0.92;58.62
64889;BME280;51386;53.082;8.816;2022-12-18T00:06:21;102876.53;;;-0.85;58.65
64889;BME280;51386;53.082;8.816;2022-12-18T00:08:48;102872.91;;;-0.80;58.91
64889;BME280;51386;53.082;8.816;2022-12-18T00:11:18;102868.63;;;-0.81;58.60
64889;BME280;51386;53.082;8.816;2022-12-18T00:13:46;102874.66;;;-0.80;58.10
64889;BME280;51386;53.082;8.816;2022-12-18T00:16:18;102874.72;;;-0.82;58.68
64889;BME280;51386;53.082;8.816;2022-12-18T00:18:48;102874.81;;;-0.85;58.94
64889;BME280;51386;53.082;8.816;2022-12-18T00:21:15;102872.91;;;-0.80;58.32
64889;BME280;51386;53.082;8.816;2022-12-18T00:23:44;102870.88;;;-0.70;59.07
64889;BME280;51386;53.082;8.816;2022-12-18T00:26:13;102881.84;;;-0.62;58.62
64889;BME280;51386;53.082;8.816;2022-12-18T00:28:41;102874.00;;;-0.60;58.21
64889;BME280;51386;53.082;8.816;2022-12-18T00:31:12;102868.78;;;-0.59;57.78
64889;BME280;51386;53.082;8.816;2022-12-18T00:33:41;102868.75;;;-0.57;57.46
64889;BME280;51386;53.082;8.816;2022-12-18T00:36:12;102869.56;;;-0.57;57.98
64889;BME280;51386;53.082;8.816;2022-12-18T00:38:40;102865.25;;;-0.56;57.37
64889;BME280;51386;53.082;8.816;2022-12-18T00:41:11;102871.22;;;-0.54;57.90
64889;BME280;51386;53.082;8.816;2022-12-18T00:43:39;102870.97;;;-0.47;58.19
64889;BME280;51386;53.082;8.816;2022-12-18T00:46:07;102869.81;;;-0.38;57.73
64889;BME280;51386;53.082;8.816;2022-12-18T00:48:35;102864.53;;;-0.35;57.28
64889;BME280;51386;53.082;8.816;2022-12-18T00:51:04;102862.00;;;-0.37;56.78
64889;BME280;51386;53.082;8.816;2022-12-18T00:53:31;102858.63;;;-0.39;56.59
64889;BME280;51386;53.082;8.816;2022-12-18T00:55:58;102862.22;;;-0.43;57.34
64889;BME280;51386;53.082;8.816;2022-12-18T00:58:24;102864.00;;;-0.45;56.89
64889;BME280;51386;53.082;8.816;2022-12-18T01:00:52;102860.53;;;-0.44;57.41
64889;BME280;51386;53.082;8.816;2022-12-18T01:03:19;102873.56;;;-0.47;56.87
64889;BME280;51386;53.082;8.816;2022-12-18T01:05:46;102880.44;;;-0.47;57.76
64889;BME280;51386;53.082;8.816;2022-12-18T01:08:14;102882.22;;;-0.48;56.79
64889;BME280;51386;53.082;8.816;2022-12-18T01:10:42;102890.91;;;-0.50;56.83
64889;BME280;51386;53.082;8.816;2022-12-18T01:13:09;102882.25;;;-0.49;57.11
64889;BME280;51386;53.082;8.816;2022-12-18T01:15:36;102886.47;;;-0.47;57.30
64889;BME280;51386;53.082;8.816;2022-12-18T01:18:03;102890.69;;;-0.44;56.74
64889;BME280;51386;53.082;8.816;2022-12-18T01:20:30;102894.94;;;-0.42;56.93
64889;BME280;51386;53.082;8.816;2022-12-18T01:22:57;102895.84;;;-0.43;56.91
64889;BME280;51386;53.082;8.816;2022-12-18T01:25:26;102895.88;;;-0.44;56.44
64889;BME280;51386;53.082;8.816;2022-12-18T01:27:53;102894.38;;;-0.51;56.83
64889;BME280;51386;53.082;8.816;2022-12-18T01:30:20;102892.03;;;-0.57;56.80
64889;BME280;51386;53.082;8.816;2022-12-18T01:32:47;102894.63;;;-0.59;56.98
64889;BME280;51386;53.082;8.816;2022-12-18T01:35:14;102893.75;;;-0.58;56.98
64889;BME280;51386;53.082;8.816;2022-12-18T01:37:41;102910.00;;;-0.54;57.46
64889;BME280;51386;53.082;8.816;2022-12-18T01:40:09;102914.22;;;-0.52;56.74
64889;BME280;51386;53.082;8.816;2022-12-18T01:42:38;102908.09;;;-0.49;56.87
64889;BME280;51386;53.082;8.816;2022-12-18T01:45:25;102903.69;;;-0.46;56.94
64889;BME280;51386;53.082;8.816;2022-12-18T01:47:56;102913.81;;;-0.40;57.52
64889;BME280;51386;53.082;8.816;2022-12-18T01:50:30;102908.66;;;-0.40;57.05
64889;BME280;51386;53.082;8.816;2022-12-18T01:53:04;102906.84;;;-0.38;56.91
64889;BME280;51386;53.082;8.816;2022-12-18T01:55:38;102911.16;;;-0.37;56.82
64889;BME280;51386;53.082;8.816;2022-12-18T01:58:09;102904.19;;;-0.35;56.83
64889;BME280;51386;53.082;8.816;2022-12-18T02:00:36;102903.28;;;-0.34;57.14
64889;BME280;51386;53.082;8.816;2022-12-18T02:03:03;102911.00;;;-0.32;56.18
64889;BME280;51386;53.082;8.816;2022-12-18T02:05:44;102909.19;;;-0.30;56.49
64889;BME280;51386;53.082;8.816;2022-12-18T02:08:19;102898.66;;;-0.24;57.23
64889;BME280;51386;53.082;8.816;2022-12-18T02:10:56;102894.22;;;-0.21;55.98
64889;BME280;51386;53.082;8.816;2022-12-18T02:13:37;102900.22;;;-0.20;56.51
64889;BME280;51386;53.082;8.816;2022-12-18T02:16:19;102896.09;;;-0.26;56.53
64889;BME280;51386;53.082;8.816;2022-12-18T02:18:57;102897.03;;;-0.28;55.67
64889;BME280;51386;53.082;8.816;2022-12-18T02:21:34;102901.53;;;-0.33;55.90
64889;BME280;51386;53.082;8.816;2022-12-18T02:24:22;102903.47;;;-0.40;55.92
64889;BME280;51386;53.082;8.816;2022-12-18T02:26:56;102904.31;;;-0.39;56.89
64889;BME280;51386;53.082;8.816;2022-12-18T02:29:30;102898.31;;;-0.40;56.91
64889;BME280;51386;53.082;8.816;2022-12-18T02:32:00;102905.19;;;-0.39;56.19
64889;BME280;51386;53.082;8.816;2022-12-18T02:34:33;102904.25;;;-0.36;56.63
64889;BME280;51386;53.082;8.816;2022-12-18T02:37:07;102890.28;;;-0.32;56.63
64889;BME280;51386;53.082;8.816;2022-12-18T02:39:40;102888.31;;;-0.24;56.50
64889;BME280;51386;53.082;8.816;2022-12-18T02:42:11;102889.03;;;-0.21;56.69
64889;BME280;51386;53.082;8.816;2022-12-18T02:44:43;102890.94;;;-0.26;56.10
64889;BME280;51386;53.082;8.816;2022-12-18T02:47:13;102887.78;;;-0.34;56.25
64889;BME280;51386;53.082;8.816;2022-12-18T02:49:53;102889.69;;;-0.40;55.90
64889;BME280;51386;53.082;8.816;2022-12-18T02:52:31;102894.94;;;-0.42;56.47
64889;BME280;51386;53.082;8.816;2022-12-18T02:55:18;102888.88;;;-0.41;55.50
64889;BME280;51386;53.082;8.816;2022-12-18T02:57:54;102898.44;;;-0.43;56.25
64889;BME280;51386;53.082;8.816;2022-12-18T03:00:28;102896.72;;;-0.44;56.59
64889;BME280;51386;53.082;8.816;2022-12-18T03:03:02;102893.34;;;-0.46;55.62
64889;BME280;51386;53.082;8.816;2022-12-18T03:05:37;102906.53;;;-0.53;55.68
64889;BME280;51386;53.082;8.816;2022-12-18T03:08:10;102905.03;;;-0.60;56.46
64889;BME280;51386;53.082;8.816;2022-12-18T03:10:45;102907.69;;;-0.62;56.12
64889;BME280;51386;53.082;8.816;2022-12-18T03:13:26;102907.69;;;-0.62;56.14
64889;BME280;51386;53.082;8.816;2022-12-18T03:15:57;102902.50;;;-0.62;56.24
64889;BME280;51386;53.082;8.816;2022-12-18T03:18:32;102907.69;;;-0.62;56.70
64889;BME280;51386;53.082;8.816;2022-12-18T03:21:06;102902.38;;;-0.59;56.16
64889;BME280;51386;53.082;8.816;2022-12-18T03:23:40;102905.09;;;-0.62;56.58
64889;BME280;51386;53.082;8.816;2022-12-18T03:26:16;102906.19;;;-0.69;56.82
64889;BME280;51386;53.082;8.816;2022-12-18T03:28:50;102900.19;;;-0.71;56.43
64889;BME280;51386;53.082;8.816;2022-12-18T03:31:19;102902.78;;;-0.71;56.93
64889;BME280;51386;53.082;8.816;2022-12-18T03:33:53;102904.50;;;-0.70;56.61
64889;BME280;51386;53.082;8.816;2022-12-18T03:36:22;102907.84;;;-0.68;56.16
64889;BME280;51386;53.082;8.816;2022-12-18T03:38:50;102907.69;;;-0.62;56.38
64889;BME280;51386;53.082;8.816;2022-12-18T03:41:25;102904.09;;;-0.58;57.14
64889;BME280;51386;53.082;8.816;2022-12-18T03:44:07;102897.03;;;-0.53;56.85
64889;BME280;51386;53.082;8.816;2022-12-18T03:46:47;102905.50;;;-0.48;57.28
64889;BME280;51386;53.082;8.816;2022-12-18T03:49:25;102902.59;;;-0.39;56.45
64889;BME280;51386;53.082;8.816;2022-12-18T03:52:01;102917.03;;;-0.33;55.59
64889;BME280;51386;53.082;8.816;2022-12-18T03:54:31;102925.66;;;-0.33;56.10
64889;BME280;51386;53.082;8.816;2022-12-18T03:57:06;102922.38;;;-0.38;55.55
64889;BME280;51386;53.082;8.816;2022-12-18T03:59:38;102914.81;;;-0.44;56.23
64889;BME280;51386;53.082;8.816;2022-12-18T04:02:07;102914.13;;;-0.49;55.60
64889;BME280;51386;53.082;8.816;2022-12-18T04:04:39;102901.25;;;-0.50;56.19
64889;BME280;51386;53.082;8.816;2022-12-18T04:07:07;102894.31;;;-0.50;56.19
64889;BME280;51386;53.082;8.816;2022-12-18T04:09:38;102886.69;;;-0.53;56.20
64889;BME280;51386;53.082;8.816;2022-12-18T04:12:06;102887.56;;;-0.54;56.65
64889;BME280;51386;53.082;8.816;2022-12-18T04:14:33;102878.81;;;-0.50;56.54
64889;BME280;51386;53.082;8.816;2022-12-18T04:17:03;102878.69;;;-0.45;56.42
64889;BME280;51386;53.082;8.816;2022-12-18T04:19:30;102883.00;;;-0.46;56.35
64889;BME280;51386;53.082;8.816;2022-12-18T04:21:57;102884.81;;;-0.48;56.32
64889;BME280;51386;53.082;8.816;2022-12-18T04:24:24;102882.22;;;-0.48;56.18
64889;BME280;51386;53.082;8.816;2022-12-18T04:26:51;102881.47;;;-0.51;55.53
64889;BME280;51386;53.082;8.816;2022-12-18T04:29:18;102884.97;;;-0.52;55.31
64889;BME280;51386;53.082;8.816;2022-12-18T04:31:45;102890.16;;;-0.54;56.36
64889;BME280;51386;53.082;8.816;2022-12-18T04:34:14;102898.00;;;-0.57;55.43
64889;BME280;51386;53.082;8.816;2022-12-18T04:36:41;102895.84;;;-0.69;55.59
64889;BME280;51386;53.082;8.816;2022-12-18T04:39:08;102894.22;;;-0.73;56.19
64889;BME280;51386;53.082;8.816;2022-12-18T04:41:35;102893.59;;;-0.80;56.05
64889;BME280;51386;53.082;8.816;2022-12-18T04:44:02;102891.06;;;-0.81;56.07
64889;BME280;51386;53.082;8.816;2022-12-18T04:46:29;102893.44;;;-0.75;56.73
64889;BME280;51386;53.082;8.816;2022-12-18T04:48:56;102895.94;;;-0.72;56.15
64889;BME280;51386;53.082;8.816;2022-12-18T04:51:24;102902.78;;;-0.71;56.29
64889;BME280;51386;53.082;8.816;2022-12-18T04:53:53;102899.41;;;-0.73;55.78
64889;BME280;51386;53.082;8.816;2022-12-18T04:56:20;102893.53;;;-0.78;55.89
64889;BME280;51386;53.082;8.816;2022-12-18T04:58:47;102904.88;;;-0.82;56.47
64889;BME280;51386;53.082;8.816;2022-12-18T05:01:16;102904.88;;;-0.82;56.01
64889;BME280;51386;53.082;8.816;2022-12-18T05:03:44;102902.38;;;-0.85;56.34
64889;BME280;51386;53.082;8.816;2022-12-18T05:06:11;102903.28;;;-0.86;56.24
64889;BME280;51386;53.082;8.816;2022-12-18T05:08:40;102909.41;;;-0.89;55.95
64889;BME280;51386;53.082;8.816;2022-12-18T05:11:10;102924.03;;;-0.89;55.69
64889;BME280;51386;53.082;8.816;2022-12-18T05:13:38;102918.03;;;-0.90;56.13
64889;BME280;51386;53.082;8.816;2022-12-18T05:16:07;102917.94;;;-0.87;56.79
64889;BME280;51386;53.082;8.816;2022-12-18T05:18:34;102923.09;;;-0.87;55.89
64889;BME280;51386;53.082;8.816;2022-12-18T05:21:02;102921.38;;;-0.86;56.19
64889;BME280;51386;53.082;8.816;2022-12-18T05:23:30;102921.47;;;-0.89;56.47
64889;BME280;51386;53.082;8.816;2022-12-18T05:26:00;102922.34;;;-0.90;56.25
64889;BME280;51386;53.082;8.816;2022-12-18T05:28:31;102933.59;;;-0.91;56.46
64889;BME280;51386;53.082;8.816;2022-12-18T05:31:01;102943.84;;;-0.88;56.00
64889;BME280;51386;53.082;8.816;2022-12-18T05:33:32;102947.38;;;-0.92;56.45
64889;BME280;51386;53.082;8.816;2022-12-18T05:36:02;102941.34;;;-0.91;56.41
64889;BME280;51386;53.082;8.816;2022-12-18T05:38:32;102947.09;;;-0.83;56.24
64889;BME280;51386;53.082;8.816;2022-12-18T05:41:01;102945.22;;;-0.78;55.97
64889;BME280;51386;53.082;8.816;2022-12-18T05:43:29;102940.66;;;-0.70;56.08
64889;BME280;51386;53.082;8.816;2022-12-18T05:45:56;102935.41;;;-0.67;55.82
64889;BME280;51386;53.082;8.816;2022-12-18T05:48:24;102942.25;;;-0.66;55.47
64889;BME280;51386;53.082;8.816;2022-12-18T05:50:51;102944.03;;;-0.68;55.98
64889;BME280;51386;53.082;8.816;2022-12-18T05:53:20;102941.47;;;-0.68;56.24
64889;BME280;51386;53.082;8.816;2022-12-18T05:55:47;102923.38;;;-0.68;56.04
64889;BME280;51386;53.082;8.816;2022-12-18T05:58:16;102925.91;;;-0.67;55.53
64889;BME280;51386;53.082;8.816;2022-12-18T06:00:45;102934.50;;;-0.66;55.67
64889;BME280;51386;53.082;8.816;2022-12-18T06:03:13;102932.03;;;-0.69;54.70
64889;BME280;51386;53.082;8.816;2022-12-18T06:05:43;102923.47;;;-0.71;55.83
64889;BME280;51386;53.082;8.816;2022-12-18T06:08:12;102931.13;;;-0.68;55.14
64889;BME280;51386;53.082;8.816;2022-12-18T06:10:40;102932.03;;;-0.69;55.40
64889;BME280;51386;53.082;8.816;2022-12-18T06:13:07;102944.25;;;-0.74;54.66
64889;BME280;51386;53.082;8.816;2022-12-18T06:15:37;102947.06;;;-0.82;54.69
64889;BME280;51386;53.082;8.816;2022-12-18T06:18:05;102938.66;;;-0.88;55.41
64889;BME280;51386;53.082;8.816;2022-12-18T06:20:32;102943.22;;;-0.96;55.31
64889;BME280;51386;53.082;8.816;2022-12-18T06:23:00;102955.63;;;-1.09;55.40
64889;BME280;51386;53.082;8.816;2022-12-18T06:25:27;102946.28;;;-1.13;55.96
64889;BME280;51386;53.082;8.816;2022-12-18T06:27:54;102943.94;;;-1.20;55.60
64889;BME280;51386;53.082;8.816;2022-12-18T06:30:22;102951.75;;;-1.23;55.58
64889;BME280;51386;53.082;8.816;2022-12-18T06:32:50;102954.53;;;-1.29;55.62
64889;BME280;51386;53.082;8.816;2022-12-18T06:35:22;102952.13;;;-1.35;56.03
64889;BME280;51386;53.082;8.816;2022-12-18T06:37:50;102948.56;;;-1.31;56.57
64889;BME280;51386;53.082;8.816;2022-12-18T06:40:18;102948.44;;;-1.27;56.65
64889;BME280;51386;53.082;8.816;2022-12-18T06:42:45;102947.44;;;-1.21;56.17
64889;BME280;51386;53.082;8.816;2022-12-18T06:45:12;102951.53;;;-1.14;56.10
64889;BME280;51386;53.082;8.816;2022-12-18T06:47:39;102948.88;;;-1.13;55.97
64889;BME280;51386;53.082;8.816;2022-12-18T06:50:08;102951.53;;;-1.14;55.67
64889;BME280;51386;53.082;8.816;2022-12-18T06:52:34;102953.25;;;-1.15;55.98
64889;BME280;51386;53.082;8.816;2022-12-18T06:55:02;102964.44;;;-1.14;56.17
64889;BME280;51386;53.082;8.816;2022-12-18T06:57:29;102971.47;;;-1.19;56.32
64889;BME280;51386;53.082;8.816;2022-12-18T06:59:56;102969.75;;;-1.20;55.86
64889;BME280;51386;53.082;8.816;2022-12-18T07:02:23;102972.34;;;-1.20;56.55
64889;BME280;51386;53.082;8.816;2022-12-18T07:04:50;102968.88;;;-1.19;55.84
64889;BME280;51386;53.082;8.816;2022-12-18T07:07:18;102968.09;;;-1.21;56.54
64889;BME280;51386;53.082;8.816;2022-12-18T07:09:45;102971.63;;;-1.25;55.98
64889;BME280;51386;53.082;8.816;2022-12-18T07:12:12;102982.88;;;-1.26;56.11
64889;BME280;51386;53.082;8.816;2022-12-18T07:14:39;102983.00;;;-1.31;55.98
64889;BME280;51386;53.082;8.816;2022-12-18T07:17:06;102987.38;;;-1.34;56.17
64889;BME280;51386;53.082;8.816;2022-12-18T07:19:34;102986.59;;;-1.37;56.16
64889;BME280;51386;53.082;8.816;2022-12-18T07:22:01;102982.41;;;-1.41;56.50
64889;BME280;51386;53.082;8.816;2022-12-18T07:24:30;102985.94;;;-1.45;56.83
64889;BME280;51386;53.082;8.816;2022-12-18T07:26:57;102987.72;;;-1.47;57.23
64889;BME280;51386;53.082;8.816;2022-12-18T07:29:24;102986.72;;;-1.43;56.72
64889;BME280;51386;53.082;8.816;2022-12-18T07:31:51;102985.81;;;-1.40;56.74
64889;BME280;51386;53.082;8.816;2022-12-18T07:34:18;102984.88;;;-1.38;56.75
64889;BME280;51386;53.082;8.816;2022-12-18T07:36:45;102995.19;;;-1.36;56.92
64889;BME280;51386;53.082;8.816;2022-12-18T07:39:12;102992.38;;;-1.28;57.24
64889;BME280;51386;53.082;8.816;2022-12-18T07:41:40;102982.75;;;-1.23;56.69
64889;BME280;51386;53.082;8.816;2022-12-18T07:44:13;102983.56;;;-1.21;55.94
64889;BME280;51386;53.082;8.816;2022-12-18T07:46:40;102980.09;;;-1.20;56.59
64889;BME280;51386;53.082;8.816;2022-12-18T07:49:07;102977.34;;;-1.14;57.02
64889;BME280;51386;53.082;8.816;2022-12-18T07:51:34;102966.81;;;-1.08;55.46
64889;BME280;51386;53.082;8.816;2022-12-18T07:54:01;102971.00;;;-1.04;56.05
64889;BME280;51386;53.082;8.816;2022-12-18T07:56:28;102972.97;;;-1.12;55.11
64889;BME280;51386;53.082;8.816;2022-12-18T07:58:59;102974.75;;;-1.14;55.31
64889;BME280;51386;53.082;8.816;2022-12-18T08:01:26;102972.97;;;-1.12;55.72
64889;BME280;51386;53.082;8.816;2022-12-18T08:03:54;102969.31;;;-1.05;55.82
64889;BME280;51386;53.082;8.816;2022-12-18T08:06:21;102956.31;;;-1.02;55.32
64889;BME280;51386;53.082;8.816;2022-12-18T08:08:52;102960.59;;;-1.01;55.29
64889;BME280;51386;53.082;8.816;2022-12-18T08:11:19;102957.00;;;-0.97;54.92
64889;BME280;51386;53.082;8.816;2022-12-18T08:13:47;102962.94;;;-0.94;55.58
64889;BME280;51386;53.082;8.816;2022-12-18T08:16:17;102955.94;;;-0.90;54.75
64889;BME280;51386;53.082;8.816;2022-12-18T08:18:45;102962.59;;;-0.83;55.20
64889;BME280;51386;53.082;8.816;2022-12-18T08:21:16;102965.19;;;-0.83;54.27
64889;BME280;51386;53.082;8.816;2022-12-18T08:23:46;102957.50;;;-0.85;54.85
64889;BME280;51386;53.082;8.816;2022-12-18T08:26:15;102962.66;;;-0.85;55.01
64889;BME280;51386;53.082;8.816;2022-12-18T08:28:42;102962.56;;;-0.82;55.68
64889;BME280;51386;53.082;8.816;2022-12-18T08:31:10;102965.75;;;-0.74;55.64
64889;BME280;51386;53.082;8.816;2022-12-18T08:33:40;102962.84;;;-0.63;54.88
64889;BME280;51386;53.082;8.816;2022-12-18T08:36:10;102963.63;;;-0.59;54.75
64889;BME280;51386;53.082;8.816;2022-12-18T08:38:37;102966.13;;;-0.58;54.71
64889;BME280;51386;53.082;8.816;2022-12-18T08:41:07;102969.59;;;-0.59;54.10
64889;BME280;51386;53.082;8.816;2022-12-18T08:43:34;102975.69;;;-0.60;54.35
64889;BME280;51386;53.082;8.816;2022-12-18T08:46:23;102965.38;;;-0.61;54.70
64889;BME280;51386;53.082;8.816;2022-12-18T08:48:53;102959.47;;;-0.65;54.87
64889;BME280;51386;53.082;8.816;2022-12-18T08:51:21;102958.06;;;-0.75;54.71
64889;BME280;51386;53.082;8.816;2022-12-18T08:53:48;102956.63;;;-0.85;54.92
64889;BME280;51386;53.082;8.816;2022-12-18T08:56:16;102951.47;;;-0.85;55.69
64889;BME280;51386;53.082;8.816;2022-12-18T08:58:43;102945.28;;;-0.80;55.80
64889;BME280;51386;53.082;8.816;2022-12-18T09:01:12;102932.03;;;-0.69;55.04
64889;BME280;51386;53.082;8.816;2022-12-18T09:03:40;102939.13;;;-0.49;54.95
64889;BME280;51386;53.082;8.816;2022-12-18T09:06:09;102938.66;;;-0.34;55.10
64889;BME280;51386;53.082;8.816;2022-12-18T09:08:39;102929.94;;;-0.32;55.12
64889;BME280;51386;53.082;8.816;2022-12-18T09:11:18;102937.06;;;-0.38;54.89
64889;BME280;51386;53.082;8.816;2022-12-18T09:13:45;102946.47;;;-0.36;55.12
64889;BME280;51386;53.082;8.816;2022-12-18T09:16:12;102952.91;;;-0.23;55.42
64889;BME280;51386;53.082;8.816;2022-12-18T09:18:39;102957.88;;;-0.17;54.54
64889;BME280;51386;53.082;8.816;2022-12-18T09:21:10;102957.78;;;-0.14;55.70
64889;BME280;51386;53.082;8.816;2022-12-18T09:23:38;102957.59;;;-0.08;54.78
64889;BME280;51386;53.082;8.816;2022-12-18T09:26:05;102957.38;;;-0.02;54.84
64889;BME280;51386;53.082;8.816;2022-12-18T09:28:33;102961.25;;;0.12;54.48
64889;BME280;51386;53.082;8.816;2022-12-18T09:31:06;102963.28;;;0.27;54.17
64889;BME280;51386;53.082;8.816;2022-12-18T09:33:35;102969.72;;;0.40;54.22
64889;BME280;51386;53.082;8.816;2022-12-18T09:36:05;102979.53;;;0.55;54.16
64889;BME280;51386;53.082;8.816;2022-12-18T09:38:34;102980.78;;;0.68;53.68
64889;BME280;51386;53.082;8.816;2022-12-18T09:41:13;102979.50;;;0.80;53.42
64889;BME280;51386;53.082;8.816;2022-12-18T09:43:47;102975.84;;;0.85;52.84
64889;BME280;51386;53.082;8.816;2022-12-18T09:46:28;102974.81;;;0.89;53.04
64889;BME280;51386;53.082;8.816;2022-12-18T09:49:01;102984.13;;;0.95;52.87
64889;BME280;51386;53.082;8.816;2022-12-18T09:51:38;102982.03;;;1.04;53.59
64889;BME280;51386;53.082;8.816;2022-12-18T09:54:15;102988.34;;;1.19;53.31
64889;BME280;51386;53.082;8.816;2022-12-18T09:56:44;102993.94;;;1.31;52.50
64889;BME280;51386;53.082;8.816;2022-12-18T09:59:22;102992.66;;;1.42;52.48
64889;BME280;51386;53.082;8.816;2022-12-18T10:01:50;103000.66;;;1.35;51.75
64889;BME280;51386;53.082;8.816;2022-12-18T10:04:18;102982.59;;;1.34;51.89
64889;BME280;51386;53.082;8.816;2022-12-18T10:06:53;102978.06;;;1.39;52.13
64889;BME280;51386;53.082;8.816;2022-12-18T10:09:32;102981.25;;;1.46;51.91
64889;BME280;51386;53.082;8.816;2022-12-18T10:12:12;102981.22;;;1.47;52.16
64889;BME280;51386;53.082;8.816;2022-12-18T10:14:50;102984.53;;;1.51;52.67
64889;BME280;51386;53.082;8.816;2022-12-18T10:17:33;102989.03;;;1.46;51.73
64889;BME280;51386;53.082;8.816;2022-12-18T10:20:11;102986.41;;;1.47;52.48
64889;BME280;51386;53.082;8.816;2022-12-18T10:22:50;102972.50;;;1.26;52.29
64889;BME280;51386;53.082;8.816;2022-12-18T10:25:26;102975.84;;;1.30;52.41
64889;BME280;51386;53.082;8.816;2022-12-18T10:28:00;102974.22;;;1.27;52.69
64889;BME280;51386;53.082;8.816;2022-12-18T10:30:34;102959.53;;;1.26;53.32
64889;BME280;51386;53.082;8.816;2022-12-18T10:33:01;102959.00;;;1.18;53.70
64889;BME280;51386;53.082;8.816;2022-12-18T10:35:29;102953.47;;;1.27;52.87
64889;BME280;51386;53.082;8.816;2022-12-18T10:38:06;102954.13;;;1.32;52.53
64889;BME280;51386;53.082;8.816;2022-12-18T10:40:49;102939.09;;;1.41;53.21
64889;BME280;51386;53.082;8.816;2022-12-18T10:43:23;102943.28;;;1.45;52.93
64889;BME280;51386;53.082;8.816;2022-12-18T10:46:16;102941.69;;;1.41;52.31
64889;BME280;51386;53.082;8.816;2022-12-18T10:48:54;102941.56;;;1.44;53.06
64889;BME280;51386;53.082;8.816;2022-12-18T10:51:26;102937.34;;;1.41;53.48
64889;BME280;51386;53.082;8.816;2022-12-18T10:54:01;102926.28;;;1.38;53.65
64889;BME280;51386;53.082;8.816;2022-12-18T10:56:34;102941.69;;;1.41;53.89
64889;BME280;51386;53.082;8.816;2022-12-18T10:59:04;102940.00;;;1.40;53.57
64889;BME280;51386;53.082;8.816;2022-12-18T11:01:49;102941.81;;;1.38;53.35
64889;BME280;51386;53.082;8.816;2022-12-18T11:04:20;102924.75;;;1.32;53.24
64889;BME280;51386;53.082;8.816;2022-12-18T11:06:57;102922.22;;;1.30;53.58
64889;BME280;51386;53.082;8.816;2022-12-18T11:09:27;102912.56;;;1.34;53.83
64889;BME280;51386;53.082;8.816;2022-12-18T11:11:58;102906.53;;;1.33;54.37
64889;BME280;51386;53.082;8.816;2022-12-18T11:14:29;102905.63;;;1.34;54.13
64889;BME280;51386;53.082;8.816;2022-12-18T11:17:00;102900.75;;;1.27;54.75
64889;BME280;51386;53.082;8.816;2022-12-18T11:19:55;102891.31;;;1.26;54.31
64889;BME280;51386;53.082;8.816;2022-12-18T11:22:26;102879.69;;;1.34;55.19
64889;BME280;51386;53.082;8.816;2022-12-18T11:24:59;102889.19;;;1.56;54.90
64889;BME280;51386;53.082;8.816;2022-12-18T11:27:54;102885.16;;;1.49;54.54
64889;BME280;51386;53.082;8.816;2022-12-18T11:30:26;102883.63;;;1.65;53.94
64889;BME280;51386;53.082;8.816;2022-12-18T11:32:59;102888.28;;;1.77;53.97
64889;BME280;51386;53.082;8.816;2022-12-18T11:35:40;102884.41;;;1.87;54.17
64889;BME280;51386;53.082;8.816;2022-12-18T11:38:21;102876.50;;;2.66;53.27
64889;BME280;51386;53.082;8.816;2022-12-18T11:40:57;102869.78;;;3.68;51.95
64889;BME280;51386;53.082;8.816;2022-12-18T11:43:31;102861.47;;;4.42;49.29
64889;BME280;51386;53.082;8.816;2022-12-18T11:46:07;102846.25;;;4.97;46.63
64889;BME280;51386;53.082;8.816;2022-12-18T11:48:49;102839.72;;;5.49;46.29
64889;BME280;51386;53.082;8.816;2022-12-18T11:51:27;102828.81;;;5.87;44.61
64889;BME280;51386;53.082;8.816;2022-12-18T11:53:56;102826.56;;;5.95;43.94
64889;BME280;51386;53.082;8.816;2022-12-18T11:56:31;102827.47;;;5.80;43.96
64889;BME280;51386;53.082;8.816;2022-12-18T11:59:12;102826.31;;;5.56;45.03
64889;BME280;51386;53.082;8.816;2022-12-18T12:01:50;102827.19;;;5.26;45.41
64889;BME280;51386;53.082;8.816;2022-12-18T12:04:48;102829.25;;;4.90;45.45
64889;BME280;51386;53.082;8.816;2022-12-18T12:07:33;102824.41;;;4.68;46.58
64889;BME280;51386;53.082;8.816;2022-12-18T12:10:20;102820.97;;;4.68;46.83
64889;BME280;51386;53.082;8.816;2022-12-18T12:13:07;102826.25;;;4.66;46.51
64889;BME280;51386;53.082;8.816;2022-12-18T12:15:54;102808.59;;;4.71;46.62
64889;BME280;51386;53.082;8.816;2022-12-18T12:18:37;102814.84;;;4.53;47.06
64889;BME280;51386;53.082;8.816;2022-12-18T12:21:20;102822.03;;;4.33;48.09
64889;BME280;51386;53.082;8.816;2022-12-18T12:23:58;102817.34;;;4.24;48.34
64889;BME280;51386;53.082;8.816;2022-12-18T12:26:36;102800.69;;;4.10;48.51
64889;BME280;51386;53.082;8.816;2022-12-18T12:29:25;102808.06;;;4.02;48.66
64889;BME280;51386;53.082;8.816;2022-12-18T12:32:11;102801.34;;;3.98;49.12
64889;BME280;51386;53.082;8.816;2022-12-18T12:34:55;102803.50;;;3.90;48.86
64889;BME280;51386;53.082;8.816;2022-12-18T12:37:45;102793.41;;;3.84;49.51
64889;BME280;51386;53.082;8.816;2022-12-18T12:40:22;102783.16;;;3.81;49.81
64889;BME280;51386;53.082;8.816;2022-12-18T12:43:24;102772.16;;;3.59;50.44
64889;BME280;51386;53.082;8.816;2022-12-18T12:45:56;102777.56;;;3.39;50.99
64889;BME280;51386;53.082;8.816;2022-12-18T12:48:37;102784.66;;;3.35;51.10
64889;BME280;51386;53.082;8.816;2022-12-18T12:51:15;102782.84;;;3.37;51.53
64889;BME280;51386;53.082;8.816;2022-12-18T12:53:43;102775.19;;;3.34;51.34
64889;BME280;51386;53.082;8.816;2022-12-18T12:56:14;102774.25;;;3.35;51.73
64889;BME280;51386;53.082;8.816;2022-12-18T12:58:58;102762.09;;;3.19;51.93
64889;BME280;51386;53.082;8.816;2022-12-18T13:01:37;102774.19;;;3.20;52.04
64889;BME280;51386;53.082;8.816;2022-12-18T13:04:23;102779.88;;;3.11;52.20
64889;BME280;51386;53.082;8.816;2022-12-18T13:07:01;102772.81;;;3.13;52.31
64889;BME280;51386;53.082;8.816;2022-12-18T13:09:33;102771.31;;;3.09;52.42
64889;BME280;51386;53.082;8.816;2022-12-18T13:12:11;102768.31;;;2.99;52.85
64889;BME280;51386;53.082;8.816;2022-12-18T13:15:23;102764.25;;;2.94;53.21
64889;BME280;51386;53.082;8.816;2022-12-18T13:18:06;102753.94;;;2.92;53.00